createdAt,value
2023-02-14T00:03:05.438Z,6.30
2023-02-14T00:07:11.765Z,6.30
2023-02-14T00:11:17.292Z,6.20
2023-02-14T00:15:22.910Z,6.30
2023-02-14T00:19:28.644Z,6.20
2023-02-14T00:23:34.138Z,6.20
2023-02-14T00:27:39.658Z,6.20
2023-02-14T00:31:45.662Z,6.20
2023-02-14T00:35:51.134Z,6.20
2023-02-14T00:39:56.614Z,6.20
2023-02-14T00:44:02.674Z,6.20
2023-02-14T00:48:08.130Z,6.20
2023-02-14T00:52:13.623Z,6.10
2023-02-14T00:56:20.202Z,6.10
2023-02-14T01:00:25.872Z,6.10
2023-02-14T01:04:31.436Z,6.20
2023-02-14T01:08:36.949Z,6.10
2023-02-14T01:12:42.407Z,6.10
2023-02-14T01:16:48.023Z,6.10
2023-02-14T01:20:53.505Z,6.10
2023-02-14T01:24:58.949Z,6.10
2023-02-14T01:29:05.771Z,6.10
2023-02-14T01:33:11.321Z,6.10
2023-02-14T01:37:16.768Z,6.10
2023-02-14T01:41:23.179Z,6.20
2023-02-14T01:45:29.880Z,6.10
2023-02-14T01:49:44.910Z,6.10
2023-02-14T01:53:51.530Z,6.10
2023-02-14T01:58:03.683Z,6.10
2023-02-14T02:02:10.226Z,6.10
2023-02-14T02:06:42.626Z,6.00
2023-02-14T02:10:48.145Z,6.00
2023-02-14T02:14:55.877Z,6.00
2023-02-14T02:19:24.673Z,6.00
2023-02-14T02:24:01.100Z,6.10
2023-02-14T02:28:44.765Z,6.00
2023-02-14T02:33:04.239Z,6.00
2023-02-14T02:37:43.304Z,6.00
2023-02-14T02:42:16.819Z,6.00
2023-02-14T02:46:50.181Z,6.00
2023-02-14T02:51:16.096Z,5.90
2023-02-14T02:56:14.527Z,5.90
2023-02-14T03:00:22.525Z,5.90
2023-02-14T03:04:47.179Z,5.90
2023-02-14T03:08:52.705Z,5.90
2023-02-14T03:13:12.965Z,5.90
2023-02-14T03:18:12.752Z,5.80
2023-02-14T03:22:35.052Z,5.90
2023-02-14T03:27:06.216Z,5.90
2023-02-14T03:31:24.502Z,5.80
2023-02-14T03:35:54.954Z,5.90
2023-02-14T03:40:15.912Z,5.80
2023-02-14T03:44:25.893Z,5.80
2023-02-14T03:48:33.671Z,5.80
2023-02-14T03:52:40.346Z,5.80
2023-02-14T03:56:45.914Z,5.80
2023-02-14T04:00:56.977Z,5.80
2023-02-14T04:05:10.095Z,5.80
2023-02-14T04:09:15.641Z,5.80
2023-02-14T04:13:21.448Z,5.80
2023-02-14T04:17:45.792Z,5.80
2023-02-14T04:21:52.966Z,5.80
2023-02-14T04:25:58.689Z,5.70
2023-02-14T04:30:04.664Z,5.70
2023-02-14T04:34:10.224Z,5.70
2023-02-14T04:38:15.763Z,5.60
2023-02-14T04:42:21.228Z,5.70
2023-02-14T04:46:26.789Z,5.60
2023-02-14T04:50:32.400Z,5.60
2023-02-14T04:54:37.849Z,5.70
2023-02-14T04:58:43.519Z,5.60
2023-02-14T05:02:50.351Z,5.60
2023-02-14T05:06:55.832Z,5.60
2023-02-14T05:11:01.644Z,5.60
2023-02-14T05:15:07.674Z,5.60
2023-02-14T05:19:13.365Z,5.60
2023-02-14T05:23:19.475Z,5.50
2023-02-14T05:27:24.953Z,5.50
2023-02-14T05:31:30.665Z,5.60
2023-02-14T05:35:36.690Z,5.60
2023-02-14T05:39:42.228Z,5.50
2023-02-14T05:43:47.790Z,5.50
2023-02-14T05:47:53.446Z,5.50
2023-02-14T05:51:59.093Z,5.50
2023-02-14T05:56:05.565Z,5.50
2023-02-14T06:00:11.927Z,5.50
2023-02-14T06:04:17.543Z,5.50
2023-02-14T06:08:23.160Z,5.70
2023-02-14T06:12:31.793Z,5.70
2023-02-14T06:16:37.531Z,5.60
2023-02-14T06:20:43.062Z,5.60
2023-02-14T06:24:48.645Z,5.60
2023-02-14T06:28:58.738Z,5.50
2023-02-14T06:33:04.319Z,5.50
2023-02-14T06:37:09.796Z,5.50
2023-02-14T06:41:17.179Z,5.50
2023-02-14T06:45:22.605Z,5.50
2023-02-14T06:49:28.053Z,5.50
2023-02-14T06:53:33.739Z,5.50
2023-02-14T06:57:40.245Z,5.40
2023-02-14T07:01:45.824Z,5.50
2023-02-14T07:05:53.016Z,5.40
2023-02-14T07:09:58.577Z,5.40
2023-02-14T07:14:04.108Z,5.50
2023-02-14T07:18:10.597Z,5.50
2023-02-14T07:22:16.169Z,5.50
2023-02-14T07:26:21.777Z,5.50
2023-02-14T07:30:27.365Z,5.50
2023-02-14T07:34:33.137Z,5.50
2023-02-14T07:38:38.801Z,5.50
2023-02-14T07:42:44.557Z,5.50
2023-02-14T07:46:50.125Z,5.60
2023-02-14T07:50:58.709Z,5.60
2023-02-14T07:55:04.676Z,5.70
2023-02-14T07:59:10.153Z,5.60
2023-02-14T08:03:15.993Z,5.70
2023-02-14T08:07:21.428Z,5.70
2023-02-14T08:11:45.756Z,5.80
2023-02-14T08:16:06.861Z,5.80
2023-02-14T08:20:13.302Z,5.90
2023-02-14T08:24:18.885Z,5.90
2023-02-14T08:28:25.894Z,5.90
2023-02-14T08:32:31.956Z,6.10
2023-02-14T08:36:37.552Z,6.10
2023-02-14T08:40:43.730Z,6.10
2023-02-14T08:44:49.292Z,6.20
2023-02-14T08:48:55.938Z,6.30
2023-02-14T08:53:01.950Z,6.30
2023-02-14T08:57:07.560Z,6.40
2023-02-14T09:01:16.893Z,6.40
2023-02-14T09:05:23.517Z,6.50
2023-02-14T09:09:29.025Z,6.60
2023-02-14T09:13:34.744Z,6.70
2023-02-14T09:17:40.835Z,6.60
2023-02-14T09:21:46.521Z,6.80
2023-02-14T09:25:52.492Z,6.90
2023-02-14T09:29:57.996Z,6.90
2023-02-14T09:34:04.631Z,7.00
2023-02-14T09:38:21.059Z,7.00
2023-02-14T09:42:51.242Z,7.10
2023-02-14T09:47:39.343Z,7.10
2023-02-14T09:51:50.435Z,7.20
2023-02-14T09:56:07.988Z,7.30
2023-02-14T10:00:32.308Z,7.40
2023-02-14T10:05:18.546Z,7.50
2023-02-14T10:09:43.644Z,7.60
2023-02-14T10:14:14.418Z,7.70
2023-02-14T10:18:27.897Z,7.70
2023-02-14T10:22:56.424Z,7.80
2023-02-14T10:27:12.749Z,7.90
2023-02-14T10:31:27.647Z,8.00
2023-02-14T10:35:56.567Z,8.00
2023-02-14T10:40:32.984Z,8.00
2023-02-14T10:45:03.731Z,8.10
2023-02-14T10:49:29.680Z,8.20
2023-02-14T10:54:05.416Z,8.20
2023-02-14T10:58:16.802Z,8.40
2023-02-14T11:02:44.328Z,8.40
2023-02-14T11:06:50.321Z,8.50
2023-02-14T11:11:28.844Z,8.60
2023-02-14T11:15:39.312Z,8.70
2023-02-14T11:20:07.199Z,8.70
2023-02-14T11:24:35.066Z,8.80
2023-02-14T11:29:14.948Z,8.80
2023-02-14T11:33:44.231Z,8.90
2023-02-14T11:37:51.889Z,8.90
2023-02-14T11:42:01.710Z,9.00
2023-02-14T11:46:22.954Z,9.00
2023-02-14T11:50:28.741Z,9.10
2023-02-14T11:54:39.679Z,9.20
2023-02-14T11:58:59.063Z,9.20
2023-02-14T12:03:06.595Z,9.30
2023-02-14T12:07:21.217Z,9.30
2023-02-14T12:11:29.017Z,9.30
2023-02-14T12:15:42.174Z,9.30
2023-02-14T12:20:32.160Z,9.30
2023-02-14T12:24:52.758Z,9.40
2023-02-14T12:29:38.037Z,9.40
2023-02-14T12:33:45.706Z,9.50
2023-02-14T12:38:04.375Z,9.50
2023-02-14T12:42:29.812Z,9.50
2023-02-14T12:46:57.520Z,9.50
2023-02-14T12:51:06.169Z,9.50
2023-02-14T12:55:34.658Z,9.70
2023-02-14T12:59:53.755Z,9.60
2023-02-14T13:04:45.173Z,9.70
2023-02-14T13:09:08.621Z,9.70
2023-02-14T13:13:25.844Z,9.70
2023-02-14T13:17:58.994Z,9.70
2023-02-14T13:22:06.337Z,9.90
2023-02-14T13:26:20.474Z,9.90
2023-02-14T13:30:32.149Z,9.90
2023-02-14T13:34:44.850Z,10.00
2023-02-14T13:43:02.369Z,10.10
2023-02-14T13:47:19.954Z,10.20
2023-02-14T13:51:49.274Z,10.20
2023-02-14T13:55:56.011Z,10.20
2023-02-14T14:00:19.607Z,10.30
2023-02-14T14:04:28.271Z,10.40
2023-02-14T14:08:46.550Z,10.50
2023-02-14T14:12:53.092Z,10.50
2023-02-14T14:17:00.181Z,10.60
2023-02-14T14:21:37.539Z,10.60
2023-02-14T14:25:43.406Z,10.60
2023-02-14T14:29:56.373Z,10.70
2023-02-14T14:34:02.508Z,10.80
2023-02-14T14:38:14.171Z,10.80
2023-02-14T14:42:21.401Z,10.70
2023-02-14T14:46:27.238Z,10.60
2023-02-14T14:50:35.835Z,10.50
2023-02-14T14:54:41.409Z,10.60
2023-02-14T14:58:47.178Z,10.50
2023-02-14T15:03:09.655Z,10.50
2023-02-14T15:07:33.655Z,10.50
2023-02-14T15:11:58.662Z,10.40
2023-02-14T15:16:04.372Z,10.30
2023-02-14T15:20:19.972Z,10.20
2023-02-14T15:24:27.113Z,10.20
2023-02-14T15:28:38.523Z,10.00
2023-02-14T15:32:44.451Z,10.00
2023-02-14T15:36:56.092Z,9.90
2023-02-14T15:41:02.721Z,9.70
2023-02-14T15:45:37.944Z,9.70
2023-02-14T15:49:46.584Z,9.50
2023-02-14T15:53:59.841Z,9.40
2023-02-14T15:58:25.420Z,9.30
2023-02-14T16:02:41.109Z,9.10
2023-02-14T16:07:03.846Z,8.90
2023-02-14T16:11:28.030Z,8.80
2023-02-14T16:15:42.770Z,8.70
2023-02-14T16:19:48.455Z,8.50
2023-02-14T16:24:11.896Z,8.40
2023-02-14T16:28:18.094Z,8.40
2023-02-14T16:32:24.696Z,8.20
2023-02-14T16:36:34.649Z,8.10
2023-02-14T16:40:48.274Z,7.90
2023-02-14T16:44:54.717Z,7.80
2023-02-14T16:49:01.050Z,7.70
2023-02-14T16:53:13.226Z,7.60
2023-02-14T16:57:28.249Z,7.50
2023-02-14T17:01:33.989Z,7.30
2023-02-14T17:05:40.165Z,7.20
2023-02-14T17:09:55.174Z,7.10
2023-02-14T17:14:00.897Z,7.00
2023-02-14T17:18:12.240Z,6.80
2023-02-14T17:22:18.462Z,6.70
2023-02-14T17:26:24.157Z,6.70
2023-02-14T17:30:29.805Z,6.60
2023-02-14T17:34:35.356Z,6.50
2023-02-14T17:38:43.801Z,6.40
2023-02-14T17:42:49.428Z,6.30
2023-02-14T17:46:55.186Z,6.20
2023-02-14T17:51:09.335Z,6.10
2023-02-14T17:55:15.836Z,6.00
2023-02-14T17:59:21.344Z,5.90
2023-02-14T18:03:26.956Z,5.80
2023-02-14T18:07:32.545Z,5.70
2023-02-14T18:11:40.211Z,5.60
2023-02-14T18:15:46.105Z,5.50
2023-02-14T18:19:51.558Z,5.40
2023-02-14T18:23:59.705Z,5.30
2023-02-14T18:28:05.298Z,5.20
2023-02-14T18:32:10.893Z,5.10
2023-02-14T18:36:20.638Z,5.10
2023-02-14T18:40:27.230Z,5.00
2023-02-14T18:44:33.475Z,4.90
2023-02-14T18:48:39.419Z,4.80
2023-02-14T18:52:44.948Z,4.70
2023-02-14T18:56:50.715Z,4.60
2023-02-14T19:00:56.551Z,4.60
2023-02-14T19:05:02.171Z,4.40
2023-02-14T19:09:11.787Z,4.40
2023-02-14T19:13:18.020Z,4.30
2023-02-14T19:17:24.784Z,4.10
2023-02-14T19:21:36.815Z,4.10
2023-02-14T19:25:42.797Z,4.00
2023-02-14T19:29:48.361Z,3.90
2023-02-14T19:33:54.576Z,3.90
2023-02-14T19:38:03.433Z,3.80
2023-02-14T19:42:09.038Z,3.70
2023-02-14T19:46:15.996Z,3.70
2023-02-14T19:50:22.093Z,3.60
2023-02-14T19:54:28.503Z,3.50
2023-02-14T19:58:34.058Z,3.50
2023-02-14T20:02:45.685Z,3.40
2023-02-14T20:06:52.577Z,3.50
2023-02-14T20:10:58.156Z,3.40
2023-02-14T20:15:05.557Z,3.30
2023-02-14T20:19:16.887Z,3.20
2023-02-14T20:23:22.425Z,3.20
2023-02-14T20:27:28.194Z,3.10
2023-02-14T20:31:34.515Z,3.10
2023-02-14T20:35:40.846Z,3.10
2023-02-14T20:39:46.530Z,3.00
2023-02-14T20:43:52.398Z,3.00
2023-02-14T20:47:58.806Z,2.90
2023-02-14T20:52:04.916Z,2.80
2023-02-14T20:56:10.906Z,2.80
2023-02-14T21:00:16.561Z,2.70
2023-02-14T21:04:23.159Z,2.70
2023-02-14T21:08:28.633Z,2.60
2023-02-14T21:12:34.229Z,2.60
2023-02-14T21:16:39.804Z,2.50
2023-02-14T21:20:45.372Z,2.50
2023-02-14T21:24:50.927Z,2.40
2023-02-14T21:28:56.665Z,2.40
2023-02-14T21:33:02.327Z,2.30
2023-02-14T21:37:07.922Z,2.20
2023-02-14T21:41:20.446Z,2.20
2023-02-14T21:45:44.326Z,2.20
2023-02-14T21:50:08.231Z,2.20
2023-02-14T21:54:15.406Z,2.20
2023-02-14T21:58:20.940Z,2.20
2023-02-14T22:02:26.560Z,2.10
2023-02-14T22:06:35.005Z,2.00
2023-02-14T22:10:40.593Z,2.00
2023-02-14T22:14:46.125Z,1.90
2023-02-14T22:18:52.154Z,1.90
2023-02-14T22:22:57.666Z,1.90
2023-02-14T22:27:03.337Z,1.90
2023-02-14T22:31:09.524Z,1.90
2023-02-14T22:35:15.277Z,1.80
2023-02-14T22:39:20.793Z,1.80
2023-02-14T22:43:27.415Z,1.70
2023-02-14T22:47:33.046Z,1.70
2023-02-14T22:51:41.307Z,1.70
2023-02-14T22:55:46.807Z,1.70
2023-02-14T22:59:52.384Z,1.60
2023-02-14T23:04:01.533Z,1.60
2023-02-14T23:08:07.533Z,1.60
2023-02-14T23:12:33.110Z,1.60
2023-02-14T23:16:57.748Z,1.50
2023-02-14T23:21:22.211Z,1.40
2023-02-14T23:25:27.758Z,1.40
2023-02-14T23:29:33.898Z,1.40
2023-02-14T23:33:39.362Z,1.30
2023-02-14T23:37:44.809Z,1.30
2023-02-14T23:41:50.413Z,1.30
2023-02-14T23:46:00.402Z,1.20
2023-02-14T23:50:07.056Z,1.20
2023-02-14T23:54:13.832Z,1.10
2023-02-14T23:58:19.284Z,1.10
